Aérodrome :
LOGIN :

S'inscrire | Disclaimer

   EN    FR    IT 

 










Légende :    VFR   VFR Marginal   IFR   IFR Intensif   IFR Très Intensif
Visi : 
Plafond : 
>= 8 km
>= 3000ft
5 à 8 km
1000 à 3000 ft
1500m à 5 km
500 à 1000 ft
800 à 1500m
200 à 500 ft
< 800m
< 200 ft
Symboles :   Orages  Brouillard  Fortes neiges  Fortes précipitations  Vent > 20 kt
SIGMETs :   Divers  Orages  Givrage  Turbulence  Onde Orograph.  Cendres Volcan.







- Altitude de l'aérodrome : 158 ft
- Code IATA : QAR


EHDL - Deelen Airbase

DERNIER METAR :
  • 251955Z AUTO 21004KT 9999 FEW093 02/01 Q1010 BLU

METARs EXPIRÉS :
  • 251925Z AUTO 23004KT 9999 FEW120 03/01 Q1010 BLU
  • 251855Z AUTO 25004KT 220V300 9999 NCD 04/01 Q1010 BLU
  • 251825Z AUTO 26006KT 220V320 9999 FEW031 SCT049 05/01 Q1010 BLU
  • 251755Z AUTO 26009KT 200V300 9999 NCD 06/01 Q1010 BLU
  • 251725Z AUTO 27010KT 220V310 9999 FEW062 07/01 Q1010 BLU

TAF TAF EHDL
Valide du 25 à 17h jusqu'au 26 à 05h UTC


251621Z 2517/2605 29011G21KT 9999 SCT028 SCT050
PROB30
TEMPO 2517/2523 SCT024CB BKN030
BECMG 2518/2521 24004KT
Pas de NOTAMs connus pour ce terrain.



MET'MAP, la Météo Aéronautique d'un coup d'oeil ! - Copyright ORBIFLY Décembre 2007 - Disclaimer

ORBIFLY MET'MAP TEAM :

Programmation & Développement : Alexandra Zaïnal
Conception & Développement : Baudouin d'Aumeries
Co-Programmation & Développement : Marc-Olivier Méhu
Soutien technique & logistique : Manuel Goepfert

Contact : metmap@orbifly.com




SOURCES & CREDITS :

   NOAA